Time;durP1;ratioP1;P1;durP2;ratioP2;P2;SDS_P1;SDS_P2;PMS_P1;PMS_P2;Temp;Humidity;BMP_temperature;BMP_pressure;BME280_temperature;BME280_humidity;BME280_pressure;Samples;Min_cycle;Max_cycle;Signal;HPM_P1;HPM_P2
2022/04/16 05:50:20;;;;;;;;;;;;;;;13.29;58.41;97367.72;4233251;27;11107;-64
2022/04/16 05:52:23;;;;;;;;;;;;;;;13.40;58.08;97363.69;4227543;28;5747;-65
2022/04/16 05:54:24;;;;;;;;;;;;;;;13.44;57.98;97361.44;4245421;27;5956;-65
2022/04/16 05:56:26;;;;;;;;;;;;;;;13.34;57.56;97365.28;4245785;27;5736;-65
2022/04/16 05:58:28;;;;;;;;;;;;;;;13.45;58.06;97366.56;4227221;28;5719;-65
2022/04/16 06:00:30;;;;;;;;;;;;;;;13.42;58.57;97363.50;4245533;27;5828;-65
2022/04/16 06:02:32;;;;;;;;;;;;;;;13.39;58.83;97365.53;4237447;27;5794;-65
2022/04/16 06:04:33;;;;;;;;;;;;;;;13.34;58.82;97365.28;4211732;28;5793;-65
2022/04/16 06:06:36;;;;;;;;;;;;;;;13.39;58.35;97365.53;4211842;28;5797;-65
2022/04/16 06:08:38;;;;;;;;;;;;;;;13.44;58.17;97372.06;4211094;28;5782;-66
2022/04/16 06:10:39;;;;;;;;;;;;;;;13.58;57.90;97373.78;4223361;28;5735;-65
2022/04/16 06:12:44;;;;;;;;;;;;;;;13.89;57.08;97373.28;4228479;28;5719;-66
2022/04/16 06:14:50;;;;;;;;;;;;;;;13.93;56.64;97375.34;4228094;28;5615;-65
2022/04/16 06:16:52;;;;;;;;;;;;;;;14.37;56.18;97374.00;4228774;28;5635;-67
2022/04/16 06:18:53;;;;;;;;;;;;;;;14.63;55.72;97375.09;4228200;28;5608;-65
2022/04/16 06:20:56;;;;;;;;;;;;;;;15.05;55.08;97371.16;4228439;28;5615;-65
2022/04/16 06:22:58;;;;;;;;;;;;;;;15.42;54.20;97372.31;4210118;28;5726;-67
2022/04/16 06:25:00;;;;;;;;;;;;;;;15.47;53.48;97377.81;4227789;28;5628;-66
2022/04/16 06:27:08;;;;;;;;;;;;;;;15.71;52.67;97368.34;4210641;28;5742;-65
2022/04/16 06:29:11;;;;;;;;;;;;;;;16.15;51.64;97356.84;4209726;28;5750;-65
2022/04/16 06:31:13;;;;;;;;;;;;;;;15.65;52.95;97359.34;4228245;28;5604;-66
2022/04/16 06:33:20;;;;;;;;;;;;;;;15.42;53.27;97367.00;4228223;28;5615;-66
2022/04/16 06:35:22;;;;;;;;;;;;;;;15.14;53.28;97370.72;4228041;28;5635;-65
2022/04/16 06:37:24;;;;;;;;;;;;;;;14.78;54.67;97367.72;4209674;28;5753;-66
2022/04/16 06:39:26;;;;;;;;;;;;;;;14.73;54.88;97372.84;4227701;28;5627;-65
2022/04/16 06:41:27;;;;;;;;;;;;;;;14.53;55.17;97378.97;4209909;28;5794;-65
2022/04/16 06:43:29;;;;;;;;;;;;;;;14.48;54.94;97373.44;4228424;28;5770;-66
2022/04/16 06:45:30;;;;;;;;;;;;;;;14.33;55.98;97372.78;4209730;28;5890;-65
2022/04/16 06:47:33;;;;;;;;;;;;;;;14.17;56.44;97374.00;4209548;28;5738;-65
2022/04/16 06:49:34;;;;;;;;;;;;;;;13.90;56.31;97382.91;4226122;28;6542;-65
2022/04/16 06:51:36;;;;;;;;;;;;;;;14.03;56.33;97377.59;4216317;28;5738;-64
2022/04/16 06:53:37;;;;;;;;;;;;;;;14.05;56.39;97374.78;4198131;28;5759;-65
2022/04/16 06:55:39;;;;;;;;;;;;;;;13.94;56.71;97377.00;4210402;28;5786;-67
2022/04/16 06:57:40;;;;;;;;;;;;;;;13.68;57.10;97369.72;4216707;28;5729;-66
2022/04/16 06:59:42;;;;;;;;;;;;;;;13.92;56.35;97376.34;4216796;28;5738;-67
2022/04/16 07:01:44;;;;;;;;;;;;;;;13.96;56.50;97369.63;4198027;28;5848;-66
2022/04/16 07:03:46;;;;;;;;;;;;;;;13.83;57.12;97371.44;4216552;28;5760;-65
2022/04/16 07:05:47;;;;;;;;;;;;;;;13.93;56.74;97362.06;4216710;28;5711;-66
2022/04/16 07:07:49;;;;;;;;;;;;;;;14.01;56.77;97369.03;4216081;28;5764;-66
2022/04/16 07:09:51;;;;;;;;;;;;;;;13.76;58.27;97370.59;4215985;28;5624;-66
2022/04/16 07:11:52;;;;;;;;;;;;;;;13.56;58.20;97359.88;4193391;28;5923;-65
2022/04/16 07:13:54;;;;;;;;;;;;;;;13.79;58.31;97354.22;4215684;28;5712;-65
2022/04/16 07:15:56;;;;;;;;;;;;;;;13.80;57.78;97359.34;4216213;28;5715;-65
2022/04/16 07:17:57;;;;;;;;;;;;;;;13.95;57.13;97354.72;4216191;28;5747;-65
2022/04/16 07:19:59;;;;;;;;;;;;;;;13.98;56.95;97356.97;4197676;28;5742;-66
2022/04/16 07:22:01;;;;;;;;;;;;;;;13.90;57.22;97357.13;4216161;28;5715;-66
2022/04/16 07:24:03;;;;;;;;;;;;;;;13.85;57.36;97348.94;4210493;28;5792;-66
2022/04/16 07:26:04;;;;;;;;;;;;;;;13.81;57.24;97353.00;4199043;28;5734;-66
2022/04/16 07:28:06;;;;;;;;;;;;;;;13.99;57.15;97349.81;4199407;28;5710;-66
2022/04/16 07:30:08;;;;;;;;;;;;;;;14.11;56.26;97352.69;4194087;28;5850;-66
2022/04/16 07:32:10;;;;;;;;;;;;;;;14.12;56.25;97354.31;4215382;28;5724;-66
2022/04/16 07:34:12;;;;;;;;;;;;;;;14.15;56.35;97359.22;4214620;28;5790;-66
2022/04/16 07:36:14;;;;;;;;;;;;;;;14.25;55.97;97359.66;4214220;28;5821;-66
2022/04/16 07:38:15;;;;;;;;;;;;;;;14.26;55.57;97356.78;4197503;28;5730;-67
2022/04/16 07:40:17;;;;;;;;;;;;;;;14.34;55.99;97358.44;4207544;28;5754;-67
2022/04/16 07:42:19;;;;;;;;;;;;;;;14.15;56.17;97365.38;4215619;28;5719;-67
2022/04/16 07:44:20;;;;;;;;;;;;;;;14.06;56.32;97365.78;4190936;28;5746;-66
2022/04/16 07:46:22;;;;;;;;;;;;;;;13.92;57.01;97362.25;4206707;28;5743;-67
2022/04/16 07:48:24;;;;;;;;;;;;;;;13.94;57.28;97363.72;4205381;28;5703;-64
2022/04/16 07:50:26;;;;;;;;;;;;;;;14.21;56.61;97361.09;4180439;28;5756;-67
2022/04/16 07:52:28;;;;;;;;;;;;;;;14.16;56.92;97360.91;4211483;28;5860;-66
2022/04/16 07:54:30;;;;;;;;;;;;;;;14.28;56.24;97359.28;4215489;28;5821;-68
2022/04/16 07:56:31;;;;;;;;;;;;;;;14.04;56.72;97355.31;4215713;28;5828;-67
2022/04/16 07:58:33;;;;;;;;;;;;;;;14.15;56.39;97351.25;4215472;28;5837;-67
2022/04/16 08:00:34;;;;;;;;;;;;;;;14.28;56.34;97352.13;4214938;28;5804;-65
2022/04/16 08:02:36;;;;;;;;;;;;;;;14.23;55.64;97346.56;4196059;28;5857;-65
2022/04/16 08:04:39;;;;;;;;;;;;;;;14.37;55.66;97354.56;4213896;28;5735;-65
2022/04/16 08:06:40;;;;;;;;;;;;;;;14.38;55.94;97351.69;4214292;28;5743;-66
2022/04/16 08:08:42;;;;;;;;;;;;;;;14.35;56.40;97360.09;4232111;28;5706;-66
2022/04/16 08:10:45;;;;;;;;;;;;;;;14.38;56.45;97357.00;4216661;28;6127;-66
2022/04/16 08:12:47;;;;;;;;;;;;;;;14.37;56.20;97360.69;4183690;28;5889;-66
2022/04/16 08:14:49;;;;;;;;;;;;;;;14.17;56.83;97363.34;4184847;28;5765;-65
2022/04/16 08:16:51;;;;;;;;;;;;;;;14.17;56.67;97354.56;4218407;28;6578;-66
2022/04/16 08:18:52;;;;;;;;;;;;;;;14.19;57.50;97371.13;4211871;28;5801;-66
2022/04/16 08:20:54;;;;;;;;;;;;;;;14.06;58.01;97363.13;4207501;28;5797;-66
2022/04/16 08:22:56;;;;;;;;;;;;;;;14.12;57.70;97362.31;4198754;28;5719;-66
2022/04/16 08:27:17;;;;;;;;;;;;;;;14.16;57.28;97352.91;4211858;28;5936;-66
2022/04/16 08:29:19;;;;;;;;;;;;;;;14.08;58.29;97361.06;4209462;28;5789;-66
2022/04/16 08:31:21;;;;;;;;;;;;;;;14.31;58.08;97352.72;4208385;28;5837;-66
2022/04/16 08:33:23;;;;;;;;;;;;;;;14.48;57.86;97354.00;4188783;28;5734;-64
2022/04/16 08:35:25;;;;;;;;;;;;;;;14.45;57.64;97355.22;4212030;28;5751;-64
2022/04/16 08:37:27;;;;;;;;;;;;;;;14.37;58.09;97357.22;4214731;28;6498;-64
2022/04/16 08:39:28;;;;;;;;;;;;;;;14.35;57.70;97359.28;4214618;28;5754;-64
2022/04/16 08:41:31;;;;;;;;;;;;;;;14.42;58.03;97354.78;4217358;28;5721;-64
2022/04/16 08:43:33;;;;;;;;;;;;;;;14.35;59.28;97354.75;4193117;28;5773;-64
2022/04/16 08:45:37;;;;;;;;;;;;;;;14.43;59.32;97349.25;4207818;28;5703;-64
2022/04/16 08:47:39;;;;;;;;;;;;;;;14.54;59.82;97355.84;4215459;28;5724;-64
2022/04/16 08:49:43;;;;;;;;;;;;;;;14.66;59.10;97351.53;4212264;28;5658;-65
2022/04/16 08:51:46;;;;;;;;;;;;;;;14.75;58.98;97365.47;4214398;28;5703;-64
2022/04/16 08:53:48;;;;;;;;;;;;;;;14.66;59.26;97356.03;4214073;28;5775;-64
2022/04/16 08:55:49;;;;;;;;;;;;;;;14.62;59.15;97362.81;4213755;28;5720;-66
2022/04/16 08:57:53;;;;;;;;;;;;;;;14.75;58.91;97360.16;4190146;28;5753;-66
2022/04/16 08:59:57;;;;;;;;;;;;;;;14.92;58.48;97353.34;4211633;28;5715;-66
2022/04/16 09:01:59;;;;;;;;;;;;;;;14.96;58.84;97354.59;4207824;28;5920;-66
2022/04/16 09:04:00;;;;;;;;;;;;;;;14.96;58.38;97354.59;4206008;28;5628;-66
2022/04/16 09:06:03;;;;;;;;;;;;;;;14.83;59.37;97349.25;4210718;28;5704;-66
2022/04/16 09:08:05;;;;;;;;;;;;;;;14.90;59.46;97354.59;4200198;28;5755;-66
2022/04/16 09:10:08;;;;;;;;;;;;;;;14.63;60.30;97348.47;4188789;28;5071;-66
2022/04/16 09:12:17;;;;;;;;;;;;;;;14.73;59.49;97354.22;4203081;28;5706;-66
2022/04/16 09:14:19;;;;;;;;;;;;;;;14.73;59.45;97346.22;4217249;28;5613;-66
2022/04/16 09:16:22;;;;;;;;;;;;;;;14.43;59.83;97343.94;4225030;28;5622;-66
2022/04/16 09:18:23;;;;;;;;;;;;;;;14.54;59.60;97351.34;4222565;28;5750;-66
2022/04/16 09:20:35;;;;;;;;;;;;;;;14.72;59.01;97348.06;4219164;28;5789;-66
2022/04/16 09:22:38;;;;;;;;;;;;;;;14.75;58.90;97328.22;4199343;28;5907;-65
2022/04/16 09:24:48;;;;;;;;;;;;;;;14.85;58.48;97339.25;4221678;28;5622;-66
2022/04/16 09:26:50;;;;;;;;;;;;;;;14.85;58.71;97340.06;4232818;28;5610;-66
2022/04/16 09:28:53;;;;;;;;;;;;;;;14.91;58.89;97340.25;4220889;28;5617;-66
2022/04/16 09:30:56;;;;;;;;;;;;;;;15.06;58.08;97340.84;4216737;28;5801;-65
2022/04/16 09:32:59;;;;;;;;;;;;;;;15.02;58.39;97339.63;4216905;28;5785;-67
2022/04/16 09:35:01;;;;;;;;;;;;;;;14.49;58.91;97329.84;4231200;28;5618;-67
2022/04/16 09:37:12;;;;;;;;;;;;;;;14.71;58.56;97332.28;4233622;28;5709;-65
2022/04/16 09:39:15;;;;;;;;;;;;;;;14.92;58.22;97321.41;4226758;28;6384;-65
2022/04/16 09:41:17;;;;;;;;;;;;;;;14.99;58.37;97330.22;4212203;28;5727;-65
2022/04/16 09:43:18;;;;;;;;;;;;;;;15.08;58.01;97323.66;4214030;28;5754;-65
2022/04/16 09:45:20;;;;;;;;;;;;;;;15.20;57.60;97326.50;4214007;28;5800;-65
2022/04/16 09:47:25;;;;;;;;;;;;;;;15.29;57.19;97327.06;4214241;28;5784;-66
2022/04/16 09:49:27;;;;;;;;;;;;;;;15.29;57.35;97329.72;4213541;28;5715;-65
2022/04/16 09:51:37;;;;;;;;;;;;;;;15.36;57.68;97330.53;4214226;28;5712;-65
2022/04/16 09:53:41;;;;;;;;;;;;;;;15.35;56.56;97329.72;4214121;28;5711;-65
2022/04/16 09:55:43;;;;;;;;;;;;;;;14.82;57.43;97323.69;4195600;28;6217;-65
2022/04/16 09:57:49;;;;;;;;;;;;;;;15.06;57.86;97325.72;4195993;28;5854;-65
2022/04/16 09:59:55;;;;;;;;;;;;;;;15.10;57.86;97321.59;4214363;28;5722;-65
2022/04/16 10:01:57;;;;;;;;;;;;;;;15.23;57.46;97326.06;4214055;28;5620;-65
2022/04/16 10:04:03;;;;;;;;;;;;;;;15.18;56.81;97314.41;4214043;28;5704;-65
2022/04/16 10:06:05;;;;;;;;;;;;;;;15.31;57.55;97322.34;4214319;28;6501;-65
2022/04/16 10:08:07;;;;;;;;;;;;;;;15.41;57.26;97317.41;4214106;28;5723;-66
2022/04/16 10:10:17;;;;;;;;;;;;;;;15.38;57.34;97312.47;4213788;28;5720;-66
2022/04/16 10:14:37;;;;;;;;;;;;;;;15.63;56.85;97310.78;4196630;28;6452;-66
2022/04/16 10:17:10;;;;;;;;;;;;;;;15.65;56.60;97303.38;4198471;28;5797;-66
2022/04/16 10:19:16;;;;;;;;;;;;;;;15.54;57.95;97312.03;4188086;28;5801;-66
2022/04/16 10:21:18;;;;;;;;;;;;;;;15.59;56.49;97301.53;4197161;28;5785;-66
2022/04/16 10:23:30;;;;;;;;;;;;;;;15.49;56.54;97311.81;4200312;28;5619;-66
2022/04/16 10:25:40;;;;;;;;;;;;;;;15.45;56.70;97307.94;4210356;28;5956;-66
2022/04/16 10:27:42;;;;;;;;;;;;;;;15.60;56.28;97319.19;4208589;28;5828;-66
2022/04/16 10:29:50;;;;;;;;;;;;;;;15.71;56.16;97307.84;4212398;28;5252;-65
2022/04/16 10:31:52;;;;;;;;;;;;;;;15.87;55.35;97295.91;4213887;28;5720;-65
2022/04/16 10:34:03;;;;;;;;;;;;;;;16.02;54.14;97306.25;4196150;28;5751;-65
2022/04/16 10:36:09;;;;;;;;;;;;;;;16.53;51.54;97305.25;4215683;28;5776;-65
2022/04/16 10:38:21;;;;;;;;;;;;;;;16.81;50.98;97286.97;4196052;28;5753;-61
2022/04/16 10:40:25;;;;;;;;;;;;;;;16.95;50.40;97287.63;4216788;28;5850;-62
2022/04/16 10:42:32;;;;;;;;;;;;;;;17.02;50.08;97292.94;4212365;28;5727;-64
2022/04/16 10:44:54;;;;;;;;;;;;;;;17.08;50.20;97292.03;4219610;28;5703;-63
2022/04/16 10:46:59;;;;;;;;;;;;;;;17.21;50.94;97291.88;4216443;28;5830;-63
2022/04/16 10:49:03;;;;;;;;;;;;;;;17.25;49.05;97287.75;4209158;28;5923;-67
2022/04/16 10:51:05;;;;;;;;;;;;;;;17.33;48.60;97281.28;4199836;28;5726;-65
2022/04/16 10:53:07;;;;;;;;;;;;;;;17.40;48.82;97273.97;4212483;28;5704;-65
2022/04/16 10:55:09;;;;;;;;;;;;;;;17.54;48.03;97282.66;4217131;28;5747;-66
2022/04/16 10:57:20;;;;;;;;;;;;;;;17.65;47.59;97269.34;4196078;28;5894;-66
2022/04/16 10:59:41;;;;;;;;;;;;;;;17.67;46.47;97283.31;4216238;28;5793;-65
2022/04/16 11:01:53;;;;;;;;;;;;;;;17.63;47.00;97267.94;4209028;28;5724;-67
2022/04/16 11:03:56;;;;;;;;;;;;;;;17.57;46.21;97261.66;4212376;28;5817;-66
2022/04/16 11:06:05;;;;;;;;;;;;;;;17.67;46.59;97263.78;4215026;28;5880;-67
2022/04/16 11:08:07;;;;;;;;;;;;;;;17.65;46.40;97260.50;4212752;28;5707;-64
2022/04/16 11:10:10;;;;;;;;;;;;;;;17.63;46.35;97257.25;4208799;28;5842;-64
2022/04/16 11:12:14;;;;;;;;;;;;;;;17.58;46.81;97255.25;4215908;28;6327;-64
2022/04/16 11:14:16;;;;;;;;;;;;;;;17.45;47.56;97258.91;4211214;28;5708;-64
2022/04/16 11:16:23;;;;;;;;;;;;;;;17.39;47.52;97257.13;4211107;28;5801;-65
2022/04/16 11:18:26;;;;;;;;;;;;;;;17.45;47.29;97256.25;4214508;28;5714;-64
2022/04/16 11:20:28;;;;;;;;;;;;;;;17.52;47.19;97252.66;4203201;28;6405;-64
2022/04/16 11:22:30;;;;;;;;;;;;;;;17.65;46.61;97239.91;4197014;28;5731;-65
2022/04/16 11:24:32;;;;;;;;;;;;;;;17.67;46.60;97251.22;4217836;28;5957;-65
2022/04/16 11:36:24;;;;;;;;;;;;;;;18.08;45.60;97244.28;4211792;28;5100;-67
2022/04/16 11:38:31;;;;;;;;;;;;;;;17.83;45.73;97244.44;4215708;28;5720;-65
2022/04/16 11:40:33;;;;;;;;;;;;;;;17.81;46.23;97230.50;4214087;28;5728;-66
2022/04/16 11:42:35;;;;;;;;;;;;;;;17.89;46.40;97224.78;4215759;28;5699;-66
2022/04/16 11:44:40;;;;;;;;;;;;;;;17.82;46.41;97245.50;4210755;28;5746;-66
2022/04/16 11:46:42;;;;;;;;;;;;;;;17.75;46.21;97244.75;4194979;28;5937;-66
2022/04/16 11:48:48;;;;;;;;;;;;;;;17.82;45.54;97240.13;4207011;28;5868;-65
2022/04/16 11:50:53;;;;;;;;;;;;;;;17.69;46.11;97237.66;4214907;28;5703;-65
2022/04/16 11:52:54;;;;;;;;;;;;;;;17.79;46.56;97237.94;4205042;28;5902;-65
2022/04/16 11:55:07;;;;;;;;;;;;;;;17.80;47.09;97231.53;4214847;28;5712;-65
2022/04/16 11:57:19;;;;;;;;;;;;;;;17.83;45.98;97235.59;4215155;28;6785;-65
2022/04/16 11:59:23;;;;;;;;;;;;;;;17.84;46.21;97240.72;4197283;28;5733;-65
2022/04/16 12:01:25;;;;;;;;;;;;;;;18.03;45.79;97236.94;4197811;28;5738;-65
2022/04/16 12:03:40;;;;;;;;;;;;;;;18.02;44.96;97229.16;4214363;28;5738;-67
2022/04/16 12:05:42;;;;;;;;;;;;;;;17.63;44.24;97225.97;4211157;28;5805;-66
2022/04/16 12:07:48;;;;;;;;;;;;;;;17.67;43.97;97224.50;4215004;28;5716;-65
2022/04/16 12:09:50;;;;;;;;;;;;;;;17.75;44.61;97232.19;4228188;28;6495;-66
2022/04/16 12:11:55;;;;;;;;;;;;;;;17.77;45.13;97231.16;4201426;28;5119;-63
2022/04/16 12:13:56;;;;;;;;;;;;;;;17.89;45.63;97232.81;4213998;28;6364;-65
2022/04/16 12:16:03;;;;;;;;;;;;;;;17.85;45.40;97233.50;4214825;28;5723;-65
2022/04/16 12:18:23;;;;;;;;;;;;;;;17.80;44.87;97236.06;4210014;28;5765;-64
2022/04/16 12:20:25;;;;;;;;;;;;;;;17.85;44.90;97234.31;4209859;28;5724;-65
2022/04/16 12:22:27;;;;;;;;;;;;;;;17.66;44.69;97270.16;4215279;28;5720;-64
2022/04/16 12:24:29;;;;;;;;;;;;;;;17.64;45.07;97238.28;4213270;28;5815;-64
2022/04/16 12:26:31;;;;;;;;;;;;;;;17.72;45.09;97229.19;4211895;28;5810;-65
2022/04/16 12:28:36;;;;;;;;;;;;;;;17.82;45.44;97239.31;4198209;28;5824;-64
2022/04/16 12:30:38;;;;;;;;;;;;;;;17.86;45.77;97240.50;4198508;28;5924;-64
2022/04/16 12:32:41;;;;;;;;;;;;;;;17.84;45.65;97248.75;4198386;28;5785;-64
2022/04/16 12:34:43;;;;;;;;;;;;;;;17.85;44.51;97252.25;4198544;28;5742;-64
2022/04/16 12:36:45;;;;;;;;;;;;;;;17.86;45.36;97251.19;4198476;28;5093;-63
2022/04/16 12:38:47;;;;;;;;;;;;;;;17.87;45.13;97248.28;4197879;28;6443;-64
2022/04/16 12:40:48;;;;;;;;;;;;;;;17.94;44.92;97249.00;4197951;28;5085;-62
2022/04/16 12:42:56;;;;;;;;;;;;;;;18.03;44.94;97250.31;4180280;28;5761;-63
2022/04/16 12:44:58;;;;;;;;;;;;;;;18.07;45.94;97245.31;4199962;28;5737;-65
2022/04/16 12:46:59;;;;;;;;;;;;;;;18.03;45.81;97246.84;4180018;28;5781;-63
2022/04/16 12:49:06;;;;;;;;;;;;;;;18.03;45.66;97252.19;4212872;28;5708;-63
2022/04/16 12:51:10;;;;;;;;;;;;;;;17.96;44.87;97240.75;4203776;28;5782;-65
2022/04/16 12:53:12;;;;;;;;;;;;;;;17.85;44.54;97247.69;4189401;28;5975;-65
2022/04/16 12:55:15;;;;;;;;;;;;;;;17.77;45.26;97236.50;4211944;28;5819;-65
2022/04/16 12:57:16;;;;;;;;;;;;;;;17.68;45.83;97252.84;4205351;28;5711;-64
2022/04/16 12:59:18;;;;;;;;;;;;;;;17.90;45.00;97247.84;4187911;28;5743;-64
2022/04/16 13:01:20;;;;;;;;;;;;;;;17.77;45.15;97261.38;4189101;28;5747;-64
2022/04/16 13:03:22;;;;;;;;;;;;;;;17.79;45.61;97262.00;4214511;28;5715;-64
2022/04/16 13:05:32;;;;;;;;;;;;;;;17.78;45.93;97255.03;4197212;28;5738;-65
2022/04/16 13:07:41;;;;;;;;;;;;;;;17.77;45.63;97253.38;4214670;28;5718;-65
2022/04/16 13:09:42;;;;;;;;;;;;;;;17.81;45.94;97259.91;4213885;28;5727;-67
2022/04/16 13:12:03;;;;;;;;;;;;;;;17.74;46.38;97246.63;4195836;28;5715;-65
2022/04/16 13:14:04;;;;;;;;;;;;;;;17.84;46.21;97248.75;4188860;28;5935;-65
2022/04/16 13:16:06;;;;;;;;;;;;;;;17.84;45.72;97248.75;4210209;28;6648;-65
2022/04/16 13:18:08;;;;;;;;;;;;;;;17.61;44.40;97254.78;4211165;28;6504;-65
2022/04/16 13:20:09;;;;;;;;;;;;;;;17.50;43.39;97252.06;4201218;28;5937;-64
2022/04/16 13:22:11;;;;;;;;;;;;;;;17.28;44.16;97239.19;4210587;28;5748;-63
2022/04/16 13:24:15;;;;;;;;;;;;;;;17.23;45.09;97228.38;4213149;28;5759;-65
2022/04/16 13:26:17;;;;;;;;;;;;;;;17.34;45.44;97232.97;4212804;28;5727;-66
2022/04/16 13:28:18;;;;;;;;;;;;;;;17.25;45.67;97223.63;4214231;28;5813;-65
2022/04/16 13:30:20;;;;;;;;;;;;;;;17.31;45.56;97238.72;4212686;28;5735;-64
2022/04/16 13:32:22;;;;;;;;;;;;;;;17.43;44.65;97242.28;4213112;28;5743;-64
2022/04/16 13:34:37;;;;;;;;;;;;;;;17.41;44.46;97220.31;4214328;28;5719;-64
2022/04/16 13:36:38;;;;;;;;;;;;;;;17.26;45.28;97219.09;4214201;28;5727;-63
2022/04/16 13:38:40;;;;;;;;;;;;;;;17.23;46.02;97241.72;4195640;28;5739;-64
2022/04/16 13:43:02;;;;;;;;;;;;;;;17.43;45.83;97228.91;4213963;28;5738;-62
2022/04/16 13:45:04;;;;;;;;;;;;;;;17.56;45.61;97219.09;4213657;28;5716;-62
2022/04/16 13:47:07;;;;;;;;;;;;;;;17.68;43.54;97217.28;4210373;28;5724;-63
2022/04/16 13:49:09;;;;;;;;;;;;;;;17.41;43.40;97232.84;4195641;28;5821;-62
2022/04/16 13:51:11;;;;;;;;;;;;;;;17.21;45.16;97224.25;4211499;28;5817;-64
2022/04/16 13:53:13;;;;;;;;;;;;;;;17.12;44.44;97218.44;4213871;28;5759;-63
2022/04/16 13:55:14;;;;;;;;;;;;;;;17.12;44.18;97221.09;4213740;28;5739;-64
2022/04/16 13:57:16;;;;;;;;;;;;;;;17.10;43.91;97213.31;4213839;28;5780;-63
2022/04/16 13:59:18;;;;;;;;;;;;;;;17.14;43.53;97219.03;4195669;28;6476;-64
2022/04/16 14:01:22;;;;;;;;;;;;;;;17.15;42.93;97239.34;4216469;28;5794;-64
2022/04/16 14:03:25;;;;;;;;;;;;;;;17.06;43.81;97230.00;4212621;28;5942;-63
2022/04/16 14:05:48;;;;;;;;;;;;;;;17.16;44.82;97217.75;4220150;28;5866;-63
2022/04/16 14:07:48;;;;;;;;;;;;;;;17.17;43.90;97237.25;4199812;28;5730;-64
2022/04/16 14:09:50;;;;;;;;;;;;;;;17.10;43.82;97236.50;4215050;28;5759;-63
2022/04/16 14:11:52;;;;;;;;;;;;;;;16.78;44.04;97217.19;4216470;28;5820;-64
2022/04/16 14:13:54;;;;;;;;;;;;;;;16.86;45.02;97272.94;4198644;28;5746;-64
2022/04/16 14:15:56;;;;;;;;;;;;;;;16.82;44.93;97213.03;4217092;28;5759;-64
2022/04/16 14:17:58;;;;;;;;;;;;;;;17.15;44.85;97207.28;4213048;28;5751;-63
2022/04/16 14:20:00;;;;;;;;;;;;;;;17.34;44.58;97208.91;4208625;28;5760;-63
2022/04/16 14:22:04;;;;;;;;;;;;;;;17.52;44.45;97196.53;4213198;28;6448;-64
2022/04/16 14:24:05;;;;;;;;;;;;;;;17.48;44.02;97196.16;4182177;28;5836;-64
2022/04/16 14:26:09;;;;;;;;;;;;;;;17.43;44.15;97188.81;4216556;28;5700;-63
2022/04/16 14:28:10;;;;;;;;;;;;;;;17.11;44.61;97200.78;4216937;28;5763;-64
2022/04/16 14:30:13;;;;;;;;;;;;;;;17.16;43.33;97176.88;4198624;28;5747;-64
2022/04/16 14:32:14;;;;;;;;;;;;;;;17.07;43.67;97178.22;4198769;28;5758;-64
2022/04/16 14:34:18;;;;;;;;;;;;;;;16.91;44.13;97184.16;4198817;28;5123;-64
2022/04/16 14:36:20;;;;;;;;;;;;;;;16.92;44.82;97180.47;4217132;28;5850;-63
2022/04/16 14:38:24;;;;;;;;;;;;;;;16.70;45.41;97172.91;4216839;28;5735;-64
2022/04/16 14:40:26;;;;;;;;;;;;;;;16.84;45.38;97147.66;4216759;28;5800;-64
2022/04/16 14:42:28;;;;;;;;;;;;;;;16.99;45.55;97165.16;4216737;28;5703;-64
2022/04/16 14:44:29;;;;;;;;;;;;;;;17.11;45.01;97152.69;4216942;28;6292;-64
2022/04/16 14:46:31;;;;;;;;;;;;;;;17.15;45.01;97160.03;4216313;28;5715;-64
2022/04/16 14:48:33;;;;;;;;;;;;;;;17.24;44.25;97173.88;4216537;28;5736;-64
2022/04/16 14:50:37;;;;;;;;;;;;;;;17.22;43.82;97165.28;4196542;28;5761;-64
2022/04/16 14:52:39;;;;;;;;;;;;;;;17.14;43.91;97152.22;4208337;28;5850;-64
2022/04/16 14:54:41;;;;;;;;;;;;;;;17.12;43.76;97165.81;4202110;28;5133;-65
2022/04/16 14:57:03;;;;;;;;;;;;;;;17.27;43.55;97162.75;4200106;28;5827;-65
2022/04/16 14:59:06;;;;;;;;;;;;;;;17.29;43.61;97170.53;4207487;28;5648;-64
2022/04/16 15:01:10;;;;;;;;;;;;;;;17.22;44.23;97175.97;4198747;28;5826;-64
2022/04/16 15:03:12;;;;;;;;;;;;;;;16.94;44.99;97151.66;4198664;28;5750;-64
2022/04/16 15:05:14;;;;;;;;;;;;;;;17.00;45.04;97188.19;4216702;28;5092;-64
2022/04/16 15:07:16;;;;;;;;;;;;;;;16.75;45.54;97149.00;4198394;28;5081;-64
2022/04/16 15:09:18;;;;;;;;;;;;;;;16.86;45.41;97153.59;4216567;28;5665;-64
2022/04/16 15:11:20;;;;;;;;;;;;;;;16.90;45.11;97156.66;4215814;28;5576;-65
2022/04/16 15:13:21;;;;;;;;;;;;;;;16.66;45.10;97166.34;4216397;28;5739;-64
2022/04/16 15:15:23;;;;;;;;;;;;;;;16.64;45.10;97141.72;4216352;28;5859;-64
2022/04/16 15:17:25;;;;;;;;;;;;;;;16.88;44.65;97175.56;4216404;28;5724;-64
2022/04/16 15:19:26;;;;;;;;;;;;;;;16.44;45.30;97155.28;4198329;28;6002;-64
2022/04/16 15:21:28;;;;;;;;;;;;;;;16.48;45.61;97169.00;4201751;28;7731;-62
2022/04/16 15:23:30;;;;;;;;;;;;;;;16.47;45.83;97152.16;4206029;28;5957;-63
2022/04/16 15:25:32;;;;;;;;;;;;;;;16.58;45.85;97139.94;4200134;28;5726;-64
2022/04/16 15:27:33;;;;;;;;;;;;;;;16.52;45.59;97141.63;4213814;28;5108;-65
2022/04/16 15:29:35;;;;;;;;;;;;;;;16.56;45.33;97156.19;4192499;28;5758;-64
2022/04/16 15:31:38;;;;;;;;;;;;;;;16.74;45.15;97160.72;4199195;28;5819;-66
2022/04/16 15:33:40;;;;;;;;;;;;;;;16.41;44.96;97138.88;4203811;28;5774;-64
2022/04/16 15:35:42;;;;;;;;;;;;;;;16.30;45.67;97145.78;4210040;28;5724;-64
2022/04/16 15:37:44;;;;;;;;;;;;;;;16.39;45.17;97133.78;4215766;28;5750;-64
2022/04/16 15:39:45;;;;;;;;;;;;;;;16.23;45.31;97145.03;4206039;28;5719;-63
2022/04/16 15:41:47;;;;;;;;;;;;;;;16.18;45.56;97147.53;4208384;28;5767;-64
2022/04/16 15:43:49;;;;;;;;;;;;;;;16.33;45.06;97140.00;4215264;28;5795;-64
2022/04/16 15:45:50;;;;;;;;;;;;;;;16.29;44.57;97144.94;4209407;28;5862;-65
2022/04/16 15:47:52;;;;;;;;;;;;;;;16.35;44.38;97148.59;4202291;28;5730;-63
2022/04/16 15:49:56;;;;;;;;;;;;;;;16.25;44.43;97170.44;4205527;28;5835;-65
2022/04/16 15:51:57;;;;;;;;;;;;;;;16.11;44.71;97141.47;4201082;28;5715;-65
2022/04/16 15:53:59;;;;;;;;;;;;;;;16.14;44.67;97173.84;4210156;28;5812;-64
2022/04/16 15:56:01;;;;;;;;;;;;;;;16.12;44.75;97149.25;4195372;28;5805;-63
2022/04/16 15:58:03;;;;;;;;;;;;;;;16.13;45.04;97166.88;4214930;28;5715;-62
2022/04/16 16:00:05;;;;;;;;;;;;;;;16.08;45.25;97153.34;4200433;28;6108;-66
2022/04/16 16:02:07;;;;;;;;;;;;;;;16.03;45.11;97155.88;4213386;28;7710;-67
2022/04/16 16:06:29;;;;;;;;;;;;;;;15.76;45.13;97160.63;4212440;28;5728;-67
2022/04/16 16:08:31;;;;;;;;;;;;;;;15.95;44.63;97153.47;4196728;28;5666;-65
2022/04/16 16:10:32;;;;;;;;;;;;;;;15.89;44.66;97165.84;4213725;28;5651;-64
2022/04/16 16:12:34;;;;;;;;;;;;;;;15.79;45.08;97148.72;4224981;28;5725;-63
2022/04/16 16:14:35;;;;;;;;;;;;;;;15.85;44.62;97159.31;4215134;28;5723;-63
2022/04/16 16:16:37;;;;;;;;;;;;;;;15.75;44.54;97163.50;4203474;28;5743;-66
2022/04/16 16:18:39;;;;;;;;;;;;;;;15.94;43.99;97160.66;4214503;28;5625;-65
2022/04/16 16:20:40;;;;;;;;;;;;;;;16.00;43.71;97169.66;4207208;28;5972;-66
2022/04/16 16:22:43;;;;;;;;;;;;;;;15.71;44.33;97166.59;4213166;28;5502;-65
2022/04/16 16:24:46;;;;;;;;;;;;;;;15.85;44.48;97169.97;4213127;28;7722;-65
2022/04/16 16:26:47;;;;;;;;;;;;;;;16.00;44.06;97164.31;4205134;28;5708;-67
2022/04/16 16:28:49;;;;;;;;;;;;;;;16.05;44.16;97164.47;4205788;28;5723;-65
2022/04/16 16:30:51;;;;;;;;;;;;;;;15.93;44.16;97160.88;4211445;28;5723;-65
2022/04/16 16:32:52;;;;;;;;;;;;;;;15.82;44.68;97180.25;4211199;28;5877;-65
2022/04/16 16:34:57;;;;;;;;;;;;;;;15.63;44.99;97166.88;4211824;28;5743;-68
2022/04/16 16:37:01;;;;;;;;;;;;;;;15.57;45.12;97169.53;4206036;28;5809;-65
2022/04/16 16:39:05;;;;;;;;;;;;;;;15.67;45.40;97167.25;4208861;28;5726;-69
2022/04/16 16:41:09;;;;;;;;;;;;;;;15.62;44.99;97175.88;4198975;28;5734;-65
2022/04/16 16:43:11;;;;;;;;;;;;;;;15.61;45.26;97174.25;4189761;28;5742;-64
2022/04/16 16:45:13;;;;;;;;;;;;;;;15.58;45.58;97163.16;4202135;28;5747;-63
2022/04/16 16:47:15;;;;;;;;;;;;;;;15.43;45.64;97176.81;4202982;28;5730;-63
2022/04/16 16:49:17;;;;;;;;;;;;;;;15.36;45.67;97200.00;4202343;28;5774;-63
2022/04/16 16:51:20;;;;;;;;;;;;;;;15.42;45.62;97185.84;4203703;28;5734;-61
2022/04/16 16:53:21;;;;;;;;;;;;;;;15.25;46.03;97187.34;4203078;28;5782;-64
2022/04/16 16:55:23;;;;;;;;;;;;;;;15.25;45.80;97190.00;4201059;28;5759;-81
2022/04/16 16:57:26;;;;;;;;;;;;;;;15.22;46.09;97185.13;4182498;28;5859;-73
2022/04/16 16:59:28;;;;;;;;;;;;;;;15.22;45.86;97193.09;4202016;28;5801;-73